sensor_id;sensor_type;location;lat;lon;timestamp;P1;durP1;ratioP1;P2;durP2;ratioP2
77466;SDS011;66564;42.482;25.548;2024-01-15T05:23:35;15.50;;;6.53;;
77466;SDS011;66564;42.482;25.548;2024-01-15T05:26:01;14.43;;;6.65;;
77466;SDS011;66564;42.482;25.548;2024-01-15T05:28:26;14.38;;;7.05;;
77466;SDS011;66564;42.482;25.548;2024-01-15T05:30:52;26.08;;;11.85;;
77466;SDS011;66564;42.482;25.548;2024-01-15T05:33:18;37.53;;;14.77;;
77466;SDS011;66564;42.482;25.548;2024-01-15T05:35:43;29.85;;;13.20;;
77466;SDS011;66564;42.482;25.548;2024-01-15T05:38:09;23.40;;;8.73;;
77466;SDS011;66564;42.482;25.548;2024-01-15T05:40:34;16.42;;;8.20;;
77466;SDS011;66564;42.482;25.548;2024-01-15T05:43:00;18.45;;;7.45;;
77466;SDS011;66564;42.482;25.548;2024-01-15T05:45:26;15.32;;;6.75;;
77466;SDS011;66564;42.482;25.548;2024-01-15T05:47:51;18.42;;;7.35;;
77466;SDS011;66564;42.482;25.548;2024-01-15T05:50:17;18.08;;;8.02;;
77466;SDS011;66564;42.482;25.548;2024-01-15T05:52:43;17.48;;;7.72;;
77466;SDS011;66564;42.482;25.548;2024-01-15T05:55:08;12.93;;;7.38;;
77466;SDS011;66564;42.482;25.548;2024-01-15T05:57:36;16.63;;;6.90;;
77466;SDS011;66564;42.482;25.548;2024-01-15T06:00:02;23.00;;;8.27;;
77466;SDS011;66564;42.482;25.548;2024-01-15T06:02:28;28.13;;;8.00;;
77466;SDS011;66564;42.482;25.548;2024-01-15T06:04:54;23.88;;;8.20;;
77466;SDS011;66564;42.482;25.548;2024-01-15T06:07:19;14.27;;;7.78;;
77466;SDS011;66564;42.482;25.548;2024-01-15T06:09:44;13.27;;;6.65;;
77466;SDS011;66564;42.482;25.548;2024-01-15T06:12:10;14.93;;;6.75;;
77466;SDS011;66564;42.482;25.548;2024-01-15T06:14:38;15.52;;;7.55;;
77466;SDS011;66564;42.482;25.548;2024-01-15T06:17:04;17.70;;;8.00;;
77466;SDS011;66564;42.482;25.548;2024-01-15T06:19:29;19.98;;;8.25;;
77466;SDS011;66564;42.482;25.548;2024-01-15T06:21:55;20.67;;;9.48;;
77466;SDS011;66564;42.482;25.548;2024-01-15T06:24:21;19.13;;;9.20;;
77466;SDS011;66564;42.482;25.548;2024-01-15T06:26:46;15.63;;;8.25;;
77466;SDS011;66564;42.482;25.548;2024-01-15T06:29:12;16.95;;;9.02;;
77466;SDS011;66564;42.482;25.548;2024-01-15T06:31:38;18.38;;;10.30;;
77466;SDS011;66564;42.482;25.548;2024-01-15T06:34:03;19.48;;;8.98;;
77466;SDS011;66564;42.482;25.548;2024-01-15T06:36:29;17.95;;;9.45;;
77466;SDS011;66564;42.482;25.548;2024-01-15T06:38:54;21.98;;;9.20;;
77466;SDS011;66564;42.482;25.548;2024-01-15T06:41:21;18.67;;;9.10;;
77466;SDS011;66564;42.482;25.548;2024-01-15T06:43:46;17.10;;;9.27;;
77466;SDS011;66564;42.482;25.548;2024-01-15T06:46:12;24.73;;;9.52;;
77466;SDS011;66564;42.482;25.548;2024-01-15T06:48:38;26.08;;;8.57;;
77466;SDS011;66564;42.482;25.548;2024-01-15T06:51:03;25.63;;;9.40;;
77466;SDS011;66564;42.482;25.548;2024-01-15T06:53:29;56.17;;;9.90;;
77466;SDS011;66564;42.482;25.548;2024-01-15T06:55:54;30.75;;;8.77;;
77466;SDS011;66564;42.482;25.548;2024-01-15T06:58:20;28.10;;;8.90;;
77466;SDS011;66564;42.482;25.548;2024-01-15T07:00:45;42.20;;;10.90;;
77466;SDS011;66564;42.482;25.548;2024-01-15T07:03:11;34.38;;;11.30;;
77466;SDS011;66564;42.482;25.548;2024-01-15T07:05:36;27.65;;;13.52;;
77466;SDS011;66564;42.482;25.548;2024-01-15T07:08:02;26.23;;;11.13;;
77466;SDS011;66564;42.482;25.548;2024-01-15T07:10:30;20.65;;;11.45;;
77466;SDS011;66564;42.482;25.548;2024-01-15T07:12:55;22.92;;;11.75;;
77466;SDS011;66564;42.482;25.548;2024-01-15T07:15:21;19.60;;;10.90;;
77466;SDS011;66564;42.482;25.548;2024-01-15T07:17:46;29.48;;;12.35;;
77466;SDS011;66564;42.482;25.548;2024-01-15T07:20:13;23.40;;;12.25;;
77466;SDS011;66564;42.482;25.548;2024-01-15T07:35:22;32.95;;;14.30;;
77466;SDS011;66564;42.482;25.548;2024-01-15T07:37:47;27.35;;;14.57;;
77466;SDS011;66564;42.482;25.548;2024-01-15T07:40:13;22.02;;;11.45;;
77466;SDS011;66564;42.482;25.548;2024-01-15T07:42:38;22.40;;;12.20;;
77466;SDS011;66564;42.482;25.548;2024-01-15T07:45:04;18.90;;;11.00;;
77466;SDS011;66564;42.482;25.548;2024-01-15T07:47:30;22.48;;;12.07;;
77466;SDS011;66564;42.482;25.548;2024-01-15T07:49:56;23.02;;;12.07;;
77466;SDS011;66564;42.482;25.548;2024-01-15T07:52:21;23.95;;;12.70;;
77466;SDS011;66564;42.482;25.548;2024-01-15T07:54:47;21.63;;;10.52;;
77466;SDS011;66564;42.482;25.548;2024-01-15T07:57:12;19.33;;;10.73;;
77466;SDS011;66564;42.482;25.548;2024-01-15T07:59:38;26.67;;;12.88;;
77466;SDS011;66564;42.482;25.548;2024-01-15T08:02:03;29.33;;;12.80;;
77466;SDS011;66564;42.482;25.548;2024-01-15T08:04:29;31.25;;;14.80;;
77466;SDS011;66564;42.482;25.548;2024-01-15T08:06:54;27.70;;;14.43;;
77466;SDS011;66564;42.482;25.548;2024-01-15T08:09:20;26.90;;;13.23;;
77466;SDS011;66564;42.482;25.548;2024-01-15T08:11:45;19.58;;;11.98;;
77466;SDS011;66564;42.482;25.548;2024-01-15T08:14:11;23.20;;;12.57;;
77466;SDS011;66564;42.482;25.548;2024-01-15T08:16:37;22.95;;;12.70;;
77466;SDS011;66564;42.482;25.548;2024-01-15T08:19:03;24.20;;;13.48;;
77466;SDS011;66564;42.482;25.548;2024-01-15T08:21:30;21.40;;;11.82;;
77466;SDS011;66564;42.482;25.548;2024-01-15T08:23:57;22.30;;;11.45;;
77466;SDS011;66564;42.482;25.548;2024-01-15T08:26:23;21.27;;;11.63;;
77466;SDS011;66564;42.482;25.548;2024-01-15T08:28:49;26.20;;;11.45;;
77466;SDS011;66564;42.482;25.548;2024-01-15T08:31:14;21.23;;;9.90;;
77466;SDS011;66564;42.482;25.548;2024-01-15T08:33:39;24.02;;;12.23;;
77466;SDS011;66564;42.482;25.548;2024-01-15T08:36:05;23.10;;;11.75;;
77466;SDS011;66564;42.482;25.548;2024-01-15T08:38:30;24.40;;;13.93;;
77466;SDS011;66564;42.482;25.548;2024-01-15T08:40:56;27.05;;;13.18;;
77466;SDS011;66564;42.482;25.548;2024-01-15T08:43:24;18.65;;;10.57;;
77466;SDS011;66564;42.482;25.548;2024-01-15T08:45:50;22.35;;;12.13;;
77466;SDS011;66564;42.482;25.548;2024-01-15T08:48:16;22.33;;;12.23;;
77466;SDS011;66564;42.482;25.548;2024-01-15T08:50:41;19.80;;;10.40;;
77466;SDS011;66564;42.482;25.548;2024-01-15T08:53:07;35.70;;;15.00;;
77466;SDS011;66564;42.482;25.548;2024-01-15T08:55:32;41.33;;;16.40;;
77466;SDS011;66564;42.482;25.548;2024-01-15T08:57:58;26.98;;;14.75;;
77466;SDS011;66564;42.482;25.548;2024-01-15T09:00:23;27.88;;;13.13;;
77466;SDS011;66564;42.482;25.548;2024-01-15T09:02:49;22.98;;;13.93;;
77466;SDS011;66564;42.482;25.548;2024-01-15T09:05:14;20.60;;;10.82;;
77466;SDS011;66564;42.482;25.548;2024-01-15T09:07:40;20.25;;;11.30;;
77466;SDS011;66564;42.482;25.548;2024-01-15T09:10:05;21.30;;;11.05;;
77466;SDS011;66564;42.482;25.548;2024-01-15T09:12:31;23.88;;;10.93;;
77466;SDS011;66564;42.482;25.548;2024-01-15T09:14:57;19.13;;;10.60;;
77466;SDS011;66564;42.482;25.548;2024-01-15T09:17:22;32.38;;;13.88;;
77466;SDS011;66564;42.482;25.548;2024-01-15T09:19:53;21.95;;;11.77;;
77466;SDS011;66564;42.482;25.548;2024-01-15T09:22:18;21.95;;;11.07;;
77466;SDS011;66564;42.482;25.548;2024-01-15T09:24:44;19.23;;;10.02;;
77466;SDS011;66564;42.482;25.548;2024-01-15T09:27:10;23.90;;;11.65;;
77466;SDS011;66564;42.482;25.548;2024-01-15T09:29:38;21.92;;;10.40;;
77466;SDS011;66564;42.482;25.548;2024-01-15T09:32:06;19.02;;;10.52;;
77466;SDS011;66564;42.482;25.548;2024-01-15T10:49:25;18.42;;;9.00;;
77466;SDS011;66564;42.482;25.548;2024-01-15T10:51:53;19.50;;;9.57;;
77466;SDS011;66564;42.482;25.548;2024-01-15T10:54:19;17.20;;;9.18;;
77466;SDS011;66564;42.482;25.548;2024-01-15T10:56:46;15.85;;;8.68;;
77466;SDS011;66564;42.482;25.548;2024-01-15T10:59:12;15.88;;;9.10;;
77466;SDS011;66564;42.482;25.548;2024-01-15T11:01:38;24.60;;;8.57;;
77466;SDS011;66564;42.482;25.548;2024-01-15T11:04:04;12.82;;;8.30;;
77466;SDS011;66564;42.482;25.548;2024-01-15T11:06:40;16.50;;;8.95;;
77466;SDS011;66564;42.482;25.548;2024-01-15T11:09:07;16.67;;;7.85;;
77466;SDS011;66564;42.482;25.548;2024-01-15T11:11:35;15.88;;;7.97;;
77466;SDS011;66564;42.482;25.548;2024-01-15T11:14:08;13.82;;;8.05;;
77466;SDS011;66564;42.482;25.548;2024-01-15T11:16:53;15.45;;;8.35;;
77466;SDS011;66564;42.482;25.548;2024-01-15T11:19:21;17.23;;;7.85;;
77466;SDS011;66564;42.482;25.548;2024-01-15T11:21:47;16.30;;;8.18;;
77466;SDS011;66564;42.482;25.548;2024-01-15T11:24:33;16.20;;;8.95;;
77466;SDS011;66564;42.482;25.548;2024-01-15T11:27:01;13.55;;;8.32;;
77466;SDS011;66564;42.482;25.548;2024-01-15T11:32:00;17.85;;;8.50;;
77466;SDS011;66564;42.482;25.548;2024-01-15T11:37:20;20.50;;;10.75;;
77466;SDS011;66564;42.482;25.548;2024-01-15T11:39:46;28.63;;;14.63;;
77466;SDS011;66564;42.482;25.548;2024-01-15T11:42:12;30.35;;;15.55;;
77466;SDS011;66564;42.482;25.548;2024-01-15T11:44:39;39.60;;;17.88;;
77466;SDS011;66564;42.482;25.548;2024-01-15T11:47:05;33.88;;;18.70;;
77466;SDS011;66564;42.482;25.548;2024-01-15T11:52:27;30.50;;;17.88;;
77466;SDS011;66564;42.482;25.548;2024-01-15T11:57:46;26.92;;;15.82;;
77466;SDS011;66564;42.482;25.548;2024-01-15T12:00:15;28.40;;;16.02;;
77466;SDS011;66564;42.482;25.548;2024-01-15T12:02:41;29.45;;;16.00;;
77466;SDS011;66564;42.482;25.548;2024-01-15T12:05:08;29.90;;;15.30;;
77466;SDS011;66564;42.482;25.548;2024-01-15T12:07:34;27.83;;;14.77;;
77466;SDS011;66564;42.482;25.548;2024-01-15T12:10:07;33.10;;;14.25;;
77466;SDS011;66564;42.482;25.548;2024-01-15T12:12:45;31.95;;;16.73;;
77466;SDS011;66564;42.482;25.548;2024-01-15T12:15:21;32.17;;;16.80;;
77466;SDS011;66564;42.482;25.548;2024-01-15T12:17:46;29.40;;;16.63;;
77466;SDS011;66564;42.482;25.548;2024-01-15T12:20:12;31.02;;;16.08;;
77466;SDS011;66564;42.482;25.548;2024-01-15T12:22:38;27.45;;;16.52;;
77466;SDS011;66564;42.482;25.548;2024-01-15T12:25:04;26.73;;;14.57;;
77466;SDS011;66564;42.482;25.548;2024-01-15T12:27:30;31.45;;;16.35;;
77466;SDS011;66564;42.482;25.548;2024-01-15T12:29:56;33.20;;;17.08;;
77466;SDS011;66564;42.482;25.548;2024-01-15T12:32:23;30.83;;;16.52;;
77466;SDS011;66564;42.482;25.548;2024-01-15T12:34:49;28.83;;;15.30;;
77466;SDS011;66564;42.482;25.548;2024-01-15T12:37:15;26.95;;;14.32;;
77466;SDS011;66564;42.482;25.548;2024-01-15T12:39:43;27.05;;;14.65;;
77466;SDS011;66564;42.482;25.548;2024-01-15T12:42:09;25.65;;;13.70;;
77466;SDS011;66564;42.482;25.548;2024-01-15T12:44:38;28.83;;;15.27;;
77466;SDS011;66564;42.482;25.548;2024-01-15T12:47:04;26.08;;;14.65;;
77466;SDS011;66564;42.482;25.548;2024-01-15T16:48:32;22.48;;;11.20;;
77466;SDS011;66564;42.482;25.548;2024-01-15T16:50:57;17.35;;;11.45;;
77466;SDS011;66564;42.482;25.548;2024-01-15T16:53:23;24.15;;;10.98;;
77466;SDS011;66564;42.482;25.548;2024-01-15T16:55:48;1999.90;;;999.90;;
77466;SDS011;66564;42.482;25.548;2024-01-15T16:58:14;1999.90;;;999.90;;
77466;SDS011;66564;42.482;25.548;2024-01-15T17:00:39;1999.90;;;999.90;;
77466;SDS011;66564;42.482;25.548;2024-01-15T17:03:05;1999.90;;;999.90;;
77466;SDS011;66564;42.482;25.548;2024-01-15T17:05:31;1999.90;;;999.90;;
77466;SDS011;66564;42.482;25.548;2024-01-15T17:07:56;1999.90;;;999.90;;
77466;SDS011;66564;42.482;25.548;2024-01-15T17:10:21;1999.90;;;999.90;;
77466;SDS011;66564;42.482;25.548;2024-01-15T17:12:47;1999.90;;;988.65;;
77466;SDS011;66564;42.482;25.548;2024-01-15T17:15:15;1880.72;;;945.38;;
77466;SDS011;66564;42.482;25.548;2024-01-15T17:17:41;1694.70;;;902.88;;
77466;SDS011;66564;42.482;25.548;2024-01-15T17:20:06;1361.32;;;810.28;;
77466;SDS011;66564;42.482;25.548;2024-01-15T17:22:33;42.58;;;28.77;;
77466;SDS011;66564;42.482;25.548;2024-01-15T17:24:59;28.70;;;14.85;;
77466;SDS011;66564;42.482;25.548;2024-01-15T17:27:24;25.17;;;13.77;;
77466;SDS011;66564;42.482;25.548;2024-01-15T17:29:50;18.42;;;10.40;;
77466;SDS011;66564;42.482;25.548;2024-01-15T17:32:20;19.33;;;9.95;;
77466;SDS011;66564;42.482;25.548;2024-01-15T17:34:45;17.13;;;8.45;;
77466;SDS011;66564;42.482;25.548;2024-01-15T17:37:11;13.93;;;7.25;;
77466;SDS011;66564;42.482;25.548;2024-01-15T17:39:36;19.35;;;7.68;;
77466;SDS011;66564;42.482;25.548;2024-01-15T17:42:04;10.23;;;6.50;;
77466;SDS011;66564;42.482;25.548;2024-01-15T17:44:29;14.38;;;7.95;;
77466;SDS011;66564;42.482;25.548;2024-01-15T17:46:55;16.92;;;8.20;;
77466;SDS011;66564;42.482;25.548;2024-01-15T17:49:20;11.13;;;6.55;;
77466;SDS011;66564;42.482;25.548;2024-01-15T17:51:47;8.65;;;5.35;;
77466;SDS011;66564;42.482;25.548;2024-01-15T17:54:12;11.25;;;6.00;;
77466;SDS011;66564;42.482;25.548;2024-01-15T17:56:38;11.18;;;5.65;;
77466;SDS011;66564;42.482;25.548;2024-01-15T17:59:04;9.57;;;5.45;;
77466;SDS011;66564;42.482;25.548;2024-01-15T18:01:29;9.95;;;5.32;;
77466;SDS011;66564;42.482;25.548;2024-01-15T18:03:57;12.65;;;5.50;;
77466;SDS011;66564;42.482;25.548;2024-01-15T18:06:28;13.02;;;5.72;;
77466;SDS011;66564;42.482;25.548;2024-01-15T18:08:53;10.88;;;5.18;;
77466;SDS011;66564;42.482;25.548;2024-01-15T18:11:19;12.95;;;6.28;;
77466;SDS011;66564;42.482;25.548;2024-01-15T18:13:44;20.30;;;9.88;;
77466;SDS011;66564;42.482;25.548;2024-01-15T18:16:11;28.10;;;11.63;;
77466;SDS011;66564;42.482;25.548;2024-01-15T18:18:37;22.30;;;10.23;;
77466;SDS011;66564;42.482;25.548;2024-01-15T18:21:03;20.45;;;9.60;;
77466;SDS011;66564;42.482;25.548;2024-01-15T18:23:29;21.85;;;8.55;;
77466;SDS011;66564;42.482;25.548;2024-01-15T18:25:56;17.50;;;8.85;;
77466;SDS011;66564;42.482;25.548;2024-01-15T18:28:22;13.32;;;7.53;;
77466;SDS011;66564;42.482;25.548;2024-01-15T18:30:48;16.95;;;9.15;;
77466;SDS011;66564;42.482;25.548;2024-01-15T18:33:14;16.48;;;8.82;;
77466;SDS011;66564;42.482;25.548;2024-01-15T18:35:39;17.13;;;9.93;;
77466;SDS011;66564;42.482;25.548;2024-01-15T18:38:06;19.50;;;10.85;;
77466;SDS011;66564;42.482;25.548;2024-01-15T18:40:31;21.13;;;11.07;;
77466;SDS011;66564;42.482;25.548;2024-01-15T18:43:00;24.90;;;10.52;;
77466;SDS011;66564;42.482;25.548;2024-01-15T18:45:26;20.13;;;9.13;;
